Time;durP1;ratioP1;P1;durP2;ratioP2;P2;SDS_P1;SDS_P2;PMS_P1;PMS_P2;Temp;Humidity;BMP_temperature;BMP_pressure;BME280_temperature;BME280_humidity;BME280_pressure;Samples;Min_cycle;Max_cycle;Signal;HPM_P1;HPM_P2
2022/08/08 00:00:52;;;;;;;5.87;3.00;;;;;;;;;;4954033;29;20270;-74
2022/08/08 00:03:25;;;;;;;5.33;2.87;;;;;;;;;;4954346;29;20238;-74
2022/08/08 00:05:55;;;;;;;4.03;2.77;;;;;;;;;;4954216;29;20243;-74
2022/08/08 00:08:25;;;;;;;6.87;2.93;;;;;;;;;;4954091;29;20273;-74
2022/08/08 00:10:56;;;;;;;5.13;2.90;;;;;;;;;;4954071;29;20282;-73
2022/08/08 00:13:26;;;;;;;3.70;2.83;;;;;;;;;;4955635;28;20302;-76
2022/08/08 00:15:56;;;;;;;4.13;3.00;;;;;;;;;;4957840;29;20642;-76
2022/08/08 00:18:27;;;;;;;4.63;3.30;;;;;;;;;;4957999;29;20199;-76
2022/08/08 00:20:56;;;;;;;4.00;2.93;;;;;;;;;;4957742;29;20294;-76
2022/08/08 00:23:25;;;;;;;6.53;2.97;;;;;;;;;;4957781;29;20226;-76
2022/08/08 00:25:54;;;;;;;4.67;3.40;;;;;;;;;;4957831;29;20560;-76
2022/08/08 00:28:25;;;;;;;3.47;2.97;;;;;;;;;;4957583;29;20266;-77
2022/08/08 00:30:55;;;;;;;4.83;3.17;;;;;;;;;;4957732;29;20213;-74
2022/08/08 00:33:25;;;;;;;3.73;2.73;;;;;;;;;;4957674;29;20207;-77
2022/08/08 00:35:58;;;;;;;4.57;3.20;;;;;;;;;;4957914;29;20295;-77
2022/08/08 00:38:30;;;;;;;4.03;3.23;;;;;;;;;;4957208;29;20266;-77
2022/08/08 00:41:15;;;;;;;3.47;2.80;;;;;;;;;;4957701;29;20293;-76
2022/08/08 00:43:49;;;;;;;5.03;3.07;;;;;;;;;;4957485;29;20290;-76
2022/08/08 00:46:35;;;;;;;4.47;2.73;;;;;;;;;;4957193;29;20293;-77
2022/08/08 00:49:21;;;;;;;4.70;2.83;;;;;;;;;;4957249;29;20231;-72
2022/08/08 00:52:04;;;;;;;4.73;2.90;;;;;;;;;;4956901;29;20298;-72
2022/08/08 00:54:36;;;;;;;5.60;2.77;;;;;;;;;;4957221;29;20257;-74
2022/08/08 00:57:34;;;;;;;4.43;2.80;;;;;;;;;;4956716;29;20235;-74
2022/08/08 01:00:09;;;;;;;4.17;2.90;;;;;;;;;;4956189;29;20262;-74
2022/08/08 01:03:00;;;;;;;3.47;2.80;;;;;;;;;;4956992;29;20249;-74
2022/08/08 01:05:42;;;;;;;3.47;2.70;;;;;;;;;;4957090;29;20265;-73
2022/08/08 01:08:28;;;;;;;4.43;3.00;;;;;;;;;;4915835;29;20641;-73
2022/08/08 01:11:07;;;;;;;4.70;2.80;;;;;;;;;;4916098;29;20247;-73
2022/08/08 01:13:46;;;;;;;5.17;2.90;;;;;;;;;;4916209;29;20251;-74
2022/08/08 01:16:31;;;;;;;4.10;2.67;;;;;;;;;;4916210;29;20216;-73
2022/08/08 01:19:27;;;;;;;4.03;2.60;;;;;;;;;;4915669;29;20287;-74
2022/08/08 01:22:12;;;;;;;3.33;2.87;;;;;;;;;;4915725;29;20311;-74
2022/08/08 01:24:48;;;;;;;4.43;2.90;;;;;;;;;;4915343;29;20248;-74
2022/08/08 01:27:34;;;;;;;4.27;2.60;;;;;;;;;;4915908;29;20218;-74
2022/08/08 01:30:22;;;;;;;4.23;2.80;;;;;;;;;;4915981;29;20260;-74
2022/08/08 01:33:08;;;;;;;5.07;3.13;;;;;;;;;;4915993;29;20240;-73
2022/08/08 01:35:59;;;;;;;4.07;2.47;;;;;;;;;;4915762;29;20216;-74
2022/08/08 01:38:33;;;;;;;3.63;2.77;;;;;;;;;;4897579;29;20232;-72
2022/08/08 01:41:06;;;;;;;4.13;2.97;;;;;;;;;;4915620;29;20772;-74
2022/08/08 01:43:38;;;;;;;3.13;2.70;;;;;;;;;;4915755;29;20208;-74
2022/08/08 01:46:12;;;;;;;3.73;2.60;;;;;;;;;;4946575;29;20203;-74
2022/08/08 01:48:47;;;;;;;5.10;3.00;;;;;;;;;;4955983;29;20286;-74
2022/08/08 01:51:25;;;;;;;4.30;2.90;;;;;;;;;;4955802;29;20261;-73
2022/08/08 01:53:57;;;;;;;4.97;2.67;;;;;;;;;;4955810;29;20242;-73
2022/08/08 01:56:27;;;;;;;3.37;2.70;;;;;;;;;;4956209;29;20294;-73
2022/08/08 01:59:00;;;;;;;3.57;2.80;;;;;;;;;;4955809;29;20254;-74
2022/08/08 02:01:32;;;;;;;2.93;2.63;;;;;;;;;;4955729;29;20285;-73
2022/08/08 02:04:06;;;;;;;4.17;2.60;;;;;;;;;;4955958;29;20874;-73
2022/08/08 02:06:43;;;;;;;4.67;2.83;;;;;;;;;;4955219;29;20250;-74
2022/08/08 02:09:18;;;;;;;5.20;3.03;;;;;;;;;;4955348;29;20233;-74
2022/08/08 02:11:46;;;;;;;3.63;2.60;;;;;;;;;;4955836;29;20352;-73
2022/08/08 02:14:20;;;;;;;3.90;2.70;;;;;;;;;;4955532;29;20286;-74
2022/08/08 02:16:50;;;;;;;4.57;2.77;;;;;;;;;;4955693;29;20290;-74
2022/08/08 02:19:20;;;;;;;6.10;2.97;;;;;;;;;;4954963;29;20239;-73
2022/08/08 02:24:40;;;;;;;4.33;2.90;;;;;;;;;;4955241;29;20213;-73
2022/08/08 02:27:11;;;;;;;4.27;3.10;;;;;;;;;;4955400;29;20262;-74
2022/08/08 02:29:52;;;;;;;4.70;3.03;;;;;;;;;;4955181;29;20313;-73
2022/08/08 02:32:31;;;;;;;3.97;3.10;;;;;;;;;;4955144;29;20266;-74
2022/08/08 02:35:21;;;;;;;4.00;3.20;;;15.80;99.90;;;;;;4954786;29;20202;-73
2022/08/08 02:38:19;;;;;;;5.20;3.10;;;15.50;99.90;;;;;;4954410;28;20637;-74
2022/08/08 02:41:08;;;;;;;3.63;3.10;;;15.40;99.90;;;;;;4955260;29;20235;-74
2022/08/08 02:44:04;;;;;;;4.13;3.27;;;15.30;99.90;;;;;;4955055;29;20242;-74
2022/08/08 02:46:46;;;;;;;3.87;2.70;;;15.20;99.90;;;;;;4954857;29;20738;-73
2022/08/08 02:49:43;;;;;;;5.27;3.40;;;15.10;99.90;;;;;;4954796;29;20322;-73
2022/08/08 02:52:48;;;;;;;4.00;3.30;;;15.00;99.90;;;;;;4954975;29;20307;-73
2022/08/08 02:55:55;;;;;;;4.53;2.90;;;14.90;99.90;;;;;;4954937;29;20238;-74
2022/08/08 02:59:02;;;;;;;3.43;2.80;;;14.90;99.90;;;;;;4950330;29;20286;-74
2022/08/08 03:01:57;;;;;;;4.87;3.10;;;14.80;99.90;;;;;;4935393;29;20257;-73
2022/08/08 03:05:00;;;;;;;6.33;2.90;;;14.70;99.90;;;;;;4935156;29;20714;-73
2022/08/08 03:08:05;;;;;;;3.53;2.93;;;14.70;99.90;;;;;;4935744;29;20245;-74
2022/08/08 03:11:09;;;;;;;4.37;3.20;;;14.60;99.90;;;;;;4858151;29;20731;-74
2022/08/08 03:13:58;;;;;;;5.60;3.30;;;14.60;99.90;;;;;;4858199;29;20213;-73
2022/08/08 03:16:34;;;;;;;5.93;3.00;;;14.50;99.90;;;;;;4858063;29;20253;-74
2022/08/08 03:19:19;;;;;;;3.57;2.80;;;14.40;99.90;;;;;;4857995;29;20284;-73
2022/08/08 03:21:45;;;;;;;5.23;3.20;;;14.40;99.90;;;;;;4858101;29;20659;-73
2022/08/08 03:24:16;;;;;;;4.40;3.13;;;14.40;99.90;;;;;;4864309;29;20267;-74
2022/08/08 03:26:48;;;;;;;5.37;3.37;;;14.30;99.90;;;;;;4895411;29;20247;-73
2022/08/08 03:29:23;;;;;;;4.20;3.37;;;14.30;99.90;;;;;;4895135;29;20305;-73
2022/08/08 03:34:35;;;;;;;5.93;3.20;;;14.30;99.90;;;;;;4895328;29;20732;-74
2022/08/08 03:37:02;;;;;;;4.50;3.20;;;14.30;99.90;;;;;;4895099;29;20236;-73
2022/08/08 03:39:31;;;;;;;4.20;3.30;;;14.30;99.90;;;;;;4894929;29;20201;-74
2022/08/08 03:41:57;;;;;;;7.80;3.37;;;14.30;99.90;;;;;;4894964;29;20236;-74
2022/08/08 03:44:31;;;;;;;5.90;3.20;;;14.30;99.90;;;;;;4895300;29;20616;-73
2022/08/08 03:46:58;;;;;;;3.83;3.27;;;14.30;99.90;;;;;;4908444;28;20675;-73
2022/08/08 03:49:26;;;;;;;5.60;3.07;;;14.30;99.90;;;;;;4976706;28;20270;-73
2022/08/08 03:51:54;;;;;;;4.33;3.40;;;14.20;99.90;;;;;;4977540;28;20299;-73
2022/08/08 03:54:21;;;;;;;4.83;3.57;;;14.30;99.90;;;;;;4977239;28;20240;-73
2022/08/08 03:56:50;;;;;;;6.67;3.23;;;14.30;99.90;;;;;;4977554;28;20238;-73
2022/08/08 03:59:17;;;;;;;5.33;3.73;;;14.30;99.90;;;;;;4977232;28;20305;-73
2022/08/08 04:01:44;;;;;;;5.47;3.67;;;14.30;99.90;;;;;;4960379;28;20329;-73
2022/08/08 04:04:12;;;;;;;4.10;3.43;;;14.30;99.90;;;;;;4958201;29;20231;-74
2022/08/08 04:06:39;;;;;;;5.90;3.60;;;14.20;99.90;;;;;;4957969;28;20242;-73
2022/08/08 04:09:08;;;;;;;4.43;3.50;;;14.10;99.90;;;;;;4957718;29;20314;-73
2022/08/08 04:11:39;;;;;;;4.87;3.60;;;14.00;99.90;;;;;;4958112;29;20242;-74
2022/08/08 04:14:07;;;;;;;4.30;3.17;;;14.00;99.90;;;;;;4957949;29;20199;-74
2022/08/08 04:16:34;;;;;;;5.37;3.43;;;13.90;99.90;;;;;;4957522;29;20298;-74
2022/08/08 04:19:01;;;;;;;6.00;3.60;;;13.80;99.90;;;;;;4957945;29;20231;-74
2022/08/08 04:21:28;;;;;;;6.97;4.07;;;13.70;99.90;;;;;;4957686;29;20207;-74
2022/08/08 04:23:55;;;;;;;5.80;3.97;;;13.70;99.90;;;;;;4957884;28;20722;-73
2022/08/08 04:26:22;;;;;;;5.73;3.80;;;13.70;99.90;;;;;;4970718;28;20245;-74
2022/08/08 04:28:49;;;;;;;6.93;4.00;;;13.70;99.90;;;;;;4976915;28;20268;-74
2022/08/08 04:31:17;;;;;;;5.03;4.00;;;13.90;99.90;;;;;;4976467;28;20249;-74
2022/08/08 04:33:44;;;;;;;5.13;3.77;;;13.80;99.90;;;;;;4976443;28;20650;-74
2022/08/08 04:36:11;;;;;;;4.80;3.70;;;13.70;99.90;;;;;;4976596;28;20230;-73
2022/08/08 04:38:38;;;;;;;5.07;3.33;;;13.70;99.90;;;;;;4976787;28;20238;-74
2022/08/08 04:41:06;;;;;;;4.30;3.57;;;13.80;99.90;;;;;;4976715;28;20209;-73
2022/08/08 04:43:33;;;;;;;5.67;3.67;;;13.80;99.90;;;;;;4976719;28;20241;-74
2022/08/08 04:46:00;;;;;;;3.80;3.40;;;13.70;99.90;;;;;;4976409;28;20202;-74
2022/08/08 04:48:28;;;;;;;7.20;3.53;;;13.80;99.90;;;;;;4976602;28;20241;-74
2022/08/08 04:50:55;;;;;;;7.23;3.73;;;13.70;99.90;;;;;;4976349;28;20312;-73
2022/08/08 04:53:22;;;;;;;6.47;3.77;;;13.70;99.90;;;;;;4976482;28;20206;-73
2022/08/08 04:55:49;;;;;;;4.87;3.90;;;13.70;99.90;;;;;;4976312;28;20241;-74
2022/08/08 04:58:16;;;;;;;7.50;3.67;;;13.60;99.90;;;;;;4976091;28;20261;-74
2022/08/08 05:00:43;;;;;;;5.23;4.00;;;13.50;99.90;;;;;;4965286;28;20703;-73
2022/08/08 05:03:10;;;;;;;5.30;3.90;;;13.50;99.90;;;;;;4937918;29;20295;-74
2022/08/08 05:05:38;;;;;;;6.20;3.97;;;13.50;99.90;;;;;;4937841;29;20290;-73
2022/08/08 05:08:05;;;;;;;4.53;3.50;;;13.60;99.90;;;;;;4937611;29;20277;-74
2022/08/08 05:10:33;;;;;;;7.47;4.43;;;13.60;99.90;;;;;;4937418;29;20338;-73
2022/08/08 05:13:01;;;;;;;5.77;3.70;;;13.70;99.90;;;;;;4937306;29;20231;-74
2022/08/08 05:15:27;;;;;;;5.87;4.20;;;13.60;99.90;;;;;;4937465;29;20236;-74
2022/08/08 05:17:54;;;;;;;6.70;3.80;;;13.80;99.90;;;;;;4937619;29;20231;-74
2022/08/08 05:20:21;;;;;;;5.03;3.90;;;14.00;99.90;;;;;;4937320;29;20255;-74
2022/08/08 05:22:50;;;;;;;7.13;4.43;;;14.10;99.90;;;;;;4937540;29;20242;-74
2022/08/08 05:25:17;;;;;;;5.13;4.00;;;14.10;99.90;;;;;;4937392;29;20231;-74
2022/08/08 05:27:44;;;;;;;5.10;3.97;;;14.20;99.90;;;;;;4953191;29;20206;-74
2022/08/08 05:30:12;;;;;;;5.00;3.80;;;14.20;99.90;;;;;;4956418;29;20298;-74
2022/08/08 05:32:39;;;;;;;4.10;3.70;;;14.30;99.90;;;;;;4956255;28;20710;-73
2022/08/08 05:35:08;;;;;;;6.80;4.27;;;14.50;99.90;;;;;;4956247;28;20403;-74
2022/08/08 05:37:38;;;;;;;7.07;3.97;;;14.80;99.90;;;;;;4956552;29;20293;-74
2022/08/08 05:40:08;;;;;;;4.40;3.70;;;15.00;99.90;;;;;;4956084;29;20672;-74
2022/08/08 05:42:40;;;;;;;4.97;3.57;;;15.30;99.90;;;;;;4956023;29;20290;-74
2022/08/08 05:45:09;;;;;;;6.43;3.90;;;15.50;99.90;;;;;;4956010;29;20218;-74
2022/08/08 05:47:37;;;;;;;5.37;3.87;;;15.70;99.90;;;;;;4956225;29;20207;-74
2022/08/08 05:50:06;;;;;;;6.83;3.60;;;16.00;99.90;;;;;;4955995;29;20702;-74
2022/08/08 05:52:34;;;;;;;6.40;3.30;;;16.20;99.90;;;;;;4955959;29;20218;-74
2022/08/08 05:55:01;;;;;;;5.07;3.63;;;16.60;99.90;;;;;;4955836;28;20203;-74
2022/08/08 05:57:33;;;;;;;4.83;3.67;;;17.00;99.90;;;;;;4955663;29;20290;-74
2022/08/08 06:00:04;;;;;;;4.23;3.27;;;17.20;99.90;;;;;;4959010;28;20313;-74
2022/08/08 06:05:19;;;;;;;5.67;3.97;;;17.80;99.90;;;;;;4955793;29;20206;-74
2022/08/08 06:07:48;;;;;;;5.27;3.60;;;18.40;99.90;;;;;;4955482;29;20241;-74
2022/08/08 06:10:16;;;;;;;4.60;3.40;;;18.90;99.90;;;;;;4955239;29;20759;-74
2022/08/08 06:12:44;;;;;;;5.50;3.30;;;19.00;99.90;;;;;;4954938;28;20245;-73
2022/08/08 06:15:12;;;;;;;3.90;3.30;;;19.50;99.90;;;;;;4955575;29;20257;-74
2022/08/08 06:17:41;;;;;;;4.18;3.20;;;19.60;99.90;;;;;;4955512;29;20207;-74
2022/08/08 06:20:10;;;;;;;5.30;3.30;;;20.20;99.90;;;;;;4955321;29;20663;-74
2022/08/08 06:22:37;;;;;;;4.53;3.25;;;20.70;99.90;;;;;;4955223;29;20675;-74
2022/08/08 06:25:06;;;;;;;5.10;3.00;;;20.70;99.90;;;;;;4955640;29;20238;-74
2022/08/08 06:27:42;;;;;;;4.60;2.65;;;21.20;99.90;;;;;;4963034;28;20717;-74
2022/08/08 06:30:12;;;;;;;5.28;2.95;;;21.70;99.90;;;;;;4974290;28;20781;-75
2022/08/08 06:32:43;;;;;;;4.88;3.20;;;21.80;99.90;;;;;;4974633;28;20293;-74
2022/08/08 06:35:14;;;;;;;5.20;2.88;;;21.80;99.90;;;;;;4974446;28;20245;-74
2022/08/08 06:37:46;;;;;;;4.00;2.97;;;21.80;99.90;;;;;;4974263;28;20206;-74
2022/08/08 06:40:14;;;;;;;4.47;3.08;;;22.30;99.90;;;;;;4974324;28;20194;-74
2022/08/08 06:42:47;;;;;;;6.35;3.22;;;21.80;99.90;;;;;;4974598;28;20285;-74
2022/08/08 06:45:15;;;;;;;3.65;2.60;;;22.00;99.90;;;;;;4974126;28;20234;-75
2022/08/08 06:47:42;;;;;;;5.70;3.00;;;22.10;99.90;;;;;;4974515;28;20234;-74
2022/08/08 06:50:11;;;;;;;5.28;3.17;;;21.90;99.90;;;;;;4974196;28;20253;-74
2022/08/08 06:52:39;;;;;;;3.13;2.83;;;22.40;99.90;;;;;;4974175;28;20202;-74
2022/08/08 06:55:07;;;;;;;3.72;2.92;;;22.30;99.90;;;;;;4973746;28;20198;-74
2022/08/08 06:57:34;;;;;;;7.70;3.08;;;22.90;99.90;;;;;;4974293;28;20258;-75
2022/08/08 07:00:05;;;;;;;4.40;2.60;;;22.50;99.90;;;;;;4964221;28;20267;-74
2022/08/08 07:02:35;;;;;;;6.18;3.20;;;22.60;99.90;;;;;;4935070;29;20207;-75
2022/08/08 07:05:05;;;;;;;7.05;3.05;;;22.80;99.90;;;;;;4935810;29;20210;-74
2022/08/08 07:07:41;;;;;;;5.28;2.70;;;22.90;99.90;;;;;;4935515;29;20703;-74
2022/08/08 07:10:09;;;;;;;5.10;2.50;;;23.40;99.90;;;;;;4935094;29;20227;-74
2022/08/08 07:12:41;;;;;;;4.38;2.72;;;22.80;99.90;;;;;;4935754;29;20290;-74
2022/08/08 07:15:09;;;;;;;4.10;2.40;;;23.00;99.30;;;;;;4935376;29;20668;-74
2022/08/08 07:17:45;;;;;;;3.92;2.40;;;24.40;91.60;;;;;;4935184;29;20832;-74
2022/08/08 07:20:18;;;;;;;5.30;2.58;;;24.50;83.40;;;;;;4935302;29;20200;-75
2022/08/08 07:22:56;;;;;;;3.30;2.60;;;24.40;73.40;;;;;;4936697;29;20679;-75
2022/08/08 07:25:25;;;;;;;3.78;2.25;;;24.10;77.40;;;;;;4941303;29;20623;-75
2022/08/08 07:27:59;;;;;;;3.10;2.33;;;23.90;79.60;;;;;;4941614;29;20243;-74
2022/08/08 07:30:26;;;;;;;3.03;2.35;;;25.10;67.70;;;;;;4941235;29;20286;-75
2022/08/08 07:32:56;;;;;;;4.72;2.30;;;24.50;59.80;;;;;;4941585;29;20246;-75
2022/08/08 07:35:24;;;;;;;2.85;2.30;;;24.60;61.60;;;;;;4941774;29;20242;-75
2022/08/08 07:37:54;;;;;;;3.70;2.40;;;24.50;54.90;;;;;;4940756;29;20235;-75
2022/08/08 07:40:21;;;;;;;2.63;1.92;;;24.90;54.50;;;;;;4940923;29;20207;-74
2022/08/08 07:42:51;;;;;;;3.53;1.95;;;25.80;48.30;;;;;;4941697;29;20294;-75
2022/08/08 07:45:19;;;;;;;2.35;2.10;;;26.10;40.20;;;;;;4941501;29;20295;-74
2022/08/08 07:47:46;;;;;;;3.00;2.17;;;25.00;45.60;;;;;;4941127;29;20290;-74
2022/08/08 07:50:15;;;;;;;3.78;2.10;;;25.30;39.80;;;;;;4941376;29;20310;-74
2022/08/08 07:52:46;;;;;;;3.60;2.10;;;25.00;44.20;;;;;;4941281;29;20666;-75
2022/08/08 07:55:21;;;;;;;2.72;1.92;;;25.30;39.80;;;;;;4941344;29;20242;-74
2022/08/08 07:57:56;;;;;;;3.08;1.98;;;25.50;44.80;;;;;;4941281;29;20223;-74
2022/08/08 08:00:27;;;;;;;3.42;1.98;;;26.50;30.10;;;;;;4947509;28;20268;-75
2022/08/08 08:03:04;;;;;;;2.38;2.00;;;25.70;20.30;;;;;;4960331;29;20246;-74
2022/08/08 08:05:36;;;;;;;2.03;1.77;;;25.20;24.20;;;;;;4960678;29;20206;-74
2022/08/08 08:08:05;;;;;;;3.80;1.98;;;25.20;27.30;;;;;;4960551;29;20290;-74
2022/08/08 08:10:34;;;;;;;2.05;1.50;;;25.80;18.80;;;;;;4960375;29;20266;-74
2022/08/08 08:13:20;;;;;;;2.00;1.58;;;25.50;11.60;;;;;;4960732;28;20301;-74
2022/08/08 08:15:50;;;;;;;2.08;1.60;;;26.70;6.50;;;;;;4960385;29;20210;-74
2022/08/08 08:18:19;;;;;;;1.83;1.50;;;26.10;1.00;;;;;;4960677;28;20199;-74
2022/08/08 08:20:50;;;;;;;3.58;1.50;;;25.70;1.00;;;;;;4960351;29;20738;-74
2022/08/08 08:23:16;;;;;;;2.15;1.50;;;26.50;1.00;;;;;;4960192;29;20234;-74
2022/08/08 08:25:43;;;;;;;2.95;1.50;;;26.30;1.00;;;;;;4960209;29;20207;-74
2022/08/08 08:28:10;;;;;;;2.15;1.50;;;26.30;1.00;;;;;;4960446;28;20290;-74
2022/08/08 08:30:38;;;;;;;3.03;1.50;;;26.10;1.00;;;;;;4978962;28;20323;-77
2022/08/08 08:33:05;;;;;;;1.40;1.30;;;27.40;1.00;;;;;;4979908;28;20202;-76
2022/08/08 08:35:32;;;;;;;2.83;1.55;;;27.50;1.00;;;;;;4977853;28;20198;-77
2022/08/08 08:38:01;;;;;;;1.70;1.50;;;27.60;1.00;;;;;;4976524;28;20230;-77
2022/08/08 08:40:28;;;;;;;2.80;1.60;;;27.60;1.00;;;;;;4976942;28;20232;-77
2022/08/08 08:42:56;;;;;;;2.63;1.60;;;28.00;1.00;;;;;;4976670;28;20238;-77
2022/08/08 08:45:24;;;;;;;2.63;1.80;;;29.40;1.00;;;;;;4977005;28;20561;-77
2022/08/08 08:47:52;;;;;;;2.95;1.52;;;29.10;1.00;;;;;;4976566;28;20198;-78
2022/08/08 08:50:20;;;;;;;2.90;1.58;;;28.90;1.00;;;;;;4976652;28;20222;-77
2022/08/08 08:52:47;;;;;;;1.80;1.52;;;28.40;1.00;;;;;;4976626;28;20238;-77
2022/08/08 08:55:17;;;;;;;1.88;1.40;;;28.10;1.00;;;;;;4976729;28;20894;-77
2022/08/08 08:57:47;;;;;;;1.98;1.60;;;27.50;1.00;;;;;;4976555;28;20254;-77
2022/08/08 09:00:15;;;;;;;3.13;1.60;;;27.90;1.00;;;;;;4976338;28;20234;-77
2022/08/08 09:02:43;;;;;;;2.10;1.80;;;28.20;1.00;;;;;;4976527;28;20289;-77
2022/08/08 09:05:12;;;;;;;1.50;1.20;;;29.30;1.00;;;;;;4975982;28;20287;-77
2022/08/08 09:07:41;;;;;;;4.20;1.33;;;28.10;1.00;;;;;;4976549;28;20210;-77
2022/08/08 09:10:13;;;;;;;3.88;1.48;;;28.20;1.00;;;;;;4976199;28;20238;-77
2022/08/08 09:12:45;;;;;;;2.55;1.55;;;28.60;1.00;;;;;;4976330;28;20241;-77
2022/08/08 09:15:13;;;;;;;2.17;1.63;;;28.30;1.00;;;;;;4975904;28;20679;-77
2022/08/08 09:17:40;;;;;;;2.55;1.55;;;29.10;1.00;;;;;;4976260;28;20195;-77
2022/08/08 09:20:09;;;;;;;2.80;1.50;;;30.10;1.00;;;;;;4975831;28;20229;-77
2022/08/08 09:22:36;;;;;;;3.33;1.65;;;30.10;1.00;;;;;;4975955;28;20729;-77
2022/08/08 09:25:05;;;;;;;4.43;1.60;;;29.60;1.00;;;;;;4976119;28;20273;-77
2022/08/08 09:27:33;;;;;;;1.65;1.50;;;28.60;1.00;;;;;;4976366;28;20294;-77
2022/08/08 09:30:05;;;;;;;3.25;1.80;;;29.00;1.00;;;;;;4975512;28;20576;-77
2022/08/08 09:32:37;;;;;;;3.25;1.63;;;28.80;1.00;;;;;;4976066;28;20198;-77
2022/08/08 09:35:06;;;;;;;1.90;1.70;;;28.80;1.00;;;;;;4975536;28;20678;-77
2022/08/08 09:37:45;;;;;;;2.78;1.67;;;28.60;1.00;;;;;;4976053;28;20237;-77
2022/08/08 09:40:13;;;;;;;2.47;1.50;;;28.10;1.00;;;;;;4975425;28;20671;-74
2022/08/08 09:42:42;;;;;;;2.17;1.48;;;28.70;1.00;;;;;;4975423;28;20645;-74
2022/08/08 09:45:12;;;;;;;2.05;1.70;;;29.90;1.00;;;;;;4975379;28;20241;-75
2022/08/08 09:47:42;;;;;;;2.45;1.70;;;30.30;1.00;;;;;;4974884;28;20237;-74
2022/08/08 09:50:11;;;;;;;3.13;1.50;;;31.10;1.00;;;;;;4974733;28;20206;-75
2022/08/08 09:52:40;;;;;;;1.70;1.50;;;30.50;1.00;;;;;;4975202;28;20195;-74
2022/08/08 09:55:08;;;;;;;2.00;1.52;;;30.40;1.00;;;;;;4975119;28;20225;-75
2022/08/08 09:57:38;;;;;;;1.90;1.80;;;29.80;1.00;;;;;;4975203;28;20256;-77
2022/08/08 10:00:08;;;;;;;1.95;1.65;;;29.00;1.00;;;;;;4971576;28;20663;-75
2022/08/08 10:02:38;;;;;;;4.13;1.60;;;28.80;1.00;;;;;;4955941;28;20738;-75
2022/08/08 10:05:11;;;;;;;3.30;1.52;;;30.10;1.00;;;;;;4955456;28;20238;-75
2022/08/08 10:07:45;;;;;;;4.07;1.65;;;30.10;1.00;;;;;;4936515;29;20204;-75
2022/08/08 10:10:12;;;;;;;3.40;1.60;;;30.70;1.00;;;;;;4936623;29;20225;-75
2022/08/08 10:12:40;;;;;;;1.60;1.50;;;29.90;1.00;;;;;;4936468;29;20273;-75
2022/08/08 10:15:09;;;;;;;1.77;1.38;;;30.30;1.00;;;;;;4936355;29;20246;-74
2022/08/08 10:17:46;;;;;;;2.70;1.55;;;31.30;1.00;;;;;;4919151;29;20235;-75
2022/08/08 10:20:14;;;;;;;2.35;1.40;;;30.40;1.00;;;;;;4936390;29;20290;-74
2022/08/08 10:22:47;;;;;;;2.35;1.60;;;30.80;1.00;;;;;;4936356;29;20239;-75
2022/08/08 10:25:20;;;;;;;2.13;1.85;;;30.70;1.00;;;;;;4936321;29;20585;-75
2022/08/08 10:27:52;;;;;;;4.10;1.83;;;30.40;1.00;;;;;;4936464;29;20203;-75
2022/08/08 10:30:19;;;;;;;1.60;1.48;;;30.70;1.00;;;;;;4941327;29;20210;-75
2022/08/08 10:32:52;;;;;;;2.40;1.67;;;31.00;1.00;;;;;;4955184;29;20258;-75
2022/08/08 10:35:22;;;;;;;3.17;2.03;;;30.90;1.00;;;;;;4955456;29;20207;-75
2022/08/08 10:37:55;;;;;;;2.65;1.60;;;31.50;1.00;;;;;;4955121;29;20249;-77
2022/08/08 10:40:23;;;;;;;3.08;1.90;;;32.50;1.00;;;;;;4955551;29;20235;-75
2022/08/08 10:42:55;;;;;;;2.83;1.70;;;31.30;1.00;;;;;;4955027;29;20354;-77
2022/08/08 10:45:22;;;;;;;2.60;1.67;;;31.80;1.00;;;;;;4955156;29;20683;-77
2022/08/08 10:47:55;;;;;;;2.47;1.70;;;31.00;1.00;;;;;;4954868;29;20610;-74
2022/08/08 10:50:23;;;;;;;5.10;1.60;;;31.20;1.00;;;;;;4954664;29;20231;-75
2022/08/08 10:52:49;;;;;;;4.80;1.83;;;31.00;1.00;;;;;;4954871;29;20258;-75
2022/08/08 10:55:19;;;;;;;3.47;1.60;;;31.90;1.00;;;;;;4954988;29;20261;-75
2022/08/08 10:57:48;;;;;;;2.63;1.52;;;31.80;1.00;;;;;;4953917;28;20258;-75
2022/08/08 11:00:20;;;;;;;2.13;1.63;;;31.60;1.00;;;;;;4954913;28;20266;-75
2022/08/08 11:02:47;;;;;;;1.85;1.40;;;30.10;1.00;;;;;;4954539;29;20294;-74
2022/08/08 11:05:16;;;;;;;3.42;1.75;;;30.50;1.00;;;;;;4955024;29;20293;-75
2022/08/08 11:07:47;;;;;;;1.48;1.38;;;30.40;1.00;;;;;;4938301;29;20290;-74
2022/08/08 11:10:16;;;;;;;1.95;1.70;;;31.80;1.00;;;;;;4935671;29;20204;-75
2022/08/08 11:12:47;;;;;;;2.47;1.50;;;31.50;1.00;;;;;;4935206;29;20263;-75
2022/08/08 11:15:16;;;;;;;1.60;1.50;;;32.10;1.00;;;;;;4935104;29;20297;-75
2022/08/08 11:17:44;;;;;;;4.80;1.70;;;32.00;1.00;;;;;;4935480;29;20208;-74
2022/08/08 11:20:14;;;;;;;1.85;1.40;;;31.20;1.00;;;;;;4935423;29;20239;-75
2022/08/08 11:22:42;;;;;;;2.97;1.40;;;31.30;1.00;;;;;;4935633;29;20254;-74
2022/08/08 11:25:11;;;;;;;2.63;1.70;;;31.40;1.00;;;;;;4935241;29;20208;-77
2022/08/08 11:27:38;;;;;;;2.13;1.42;;;31.50;1.00;;;;;;4935392;29;20208;-75
2022/08/08 11:30:08;;;;;;;1.67;1.30;;;32.10;1.00;;;;;;4935179;29;20658;-77
2022/08/08 11:32:39;;;;;;;2.22;1.33;;;31.50;1.00;;;;;;4935248;29;20267;-77
2022/08/08 11:35:09;;;;;;;3.53;1.63;;;32.50;1.00;;;;;;4935268;29;20245;-77
2022/08/08 11:37:37;;;;;;;2.15;1.52;;;32.10;1.00;;;;;;4935065;29;20291;-77
2022/08/08 11:40:09;;;;;;;1.63;1.38;;;32.30;1.00;;;;;;4935273;29;20250;-77
2022/08/08 11:42:37;;;;;;;4.60;1.48;;;32.10;1.00;;;;;;4935069;29;20241;-75
2022/08/08 11:45:06;;;;;;;1.52;1.42;;;31.40;1.00;;;;;;4934879;29;20287;-75
2022/08/08 11:47:34;;;;;;;1.35;1.25;;;31.00;1.00;;;;;;4934988;29;20251;-75
2022/08/08 11:50:04;;;;;;;1.65;1.55;;;31.40;1.00;;;;;;4935187;29;20239;-75
2022/08/08 11:52:32;;;;;;;2.78;1.52;;;31.80;1.00;;;;;;4935240;29;20326;-75
2022/08/08 11:54:59;;;;;;;1.70;1.60;;;31.70;1.00;;;;;;4935163;29;20299;-75
2022/08/08 11:57:32;;;;;;;1.80;1.27;;;32.80;1.00;;;;;;4935186;29;20266;-74
2022/08/08 12:00:00;;;;;;;1.50;1.30;;;32.90;1.00;;;;;;4937415;29;20245;-77
2022/08/08 12:02:29;;;;;;;2.08;1.60;;;32.00;1.00;;;;;;4954298;28;20242;-74
2022/08/08 12:05:05;;;;;;;2.58;1.40;;;32.00;1.00;;;;;;4954038;28;20235;-74
2022/08/08 12:07:32;;;;;;;1.83;1.70;;;33.00;1.00;;;;;;4949299;29;20267;-74
2022/08/08 12:10:10;;;;;;;4.88;1.48;;;32.10;1.00;;;;;;4936895;29;20259;-74
2022/08/08 12:12:43;;;;;;;1.50;1.25;;;31.50;1.00;;;;;;4938524;29;20263;-74
2022/08/08 12:15:10;;;;;;;1.92;1.15;;;31.90;1.00;;;;;;4938195;29;20200;-74
2022/08/08 12:17:41;;;;;;;1.63;1.50;;;32.00;1.00;;;;;;4938676;29;20214;-74
2022/08/08 12:20:09;;;;;;;2.55;1.30;;;31.40;1.00;;;;;;4938219;29;20210;-74
2022/08/08 12:22:48;;;;;;;2.15;1.40;;;32.00;1.00;;;;;;4938599;29;20247;-74
2022/08/08 12:25:24;;;;;;;2.35;1.20;;;31.50;1.00;;;;;;4938604;29;20207;-73
2022/08/08 12:28:06;;;;;;;1.90;1.40;;;32.40;1.00;;;;;;4938101;29;20266;-74
2022/08/08 12:30:34;;;;;;;2.03;1.33;;;32.70;1.00;;;;;;4940111;29;20290;-74
2022/08/08 12:33:01;;;;;;;1.50;1.10;;;32.10;1.00;;;;;;4957472;29;20666;-74
2022/08/08 12:35:39;;;;;;;1.95;1.42;;;32.00;1.00;;;;;;4957340;29;20707;-74
2022/08/08 12:38:08;;;;;;;1.60;1.30;;;31.80;1.00;;;;;;4957562;29;20234;-74
2022/08/08 12:40:43;;;;;;;2.60;1.45;;;31.70;1.00;;;;;;4957160;29;20242;-74
2022/08/08 12:43:13;;;;;;;1.95;1.20;;;31.60;1.00;;;;;;4957022;29;20235;-77
2022/08/08 12:45:43;;;;;;;3.17;1.33;;;32.60;1.00;;;;;;4957446;29;20270;-76
2022/08/08 12:48:19;;;;;;;2.15;1.50;;;32.20;1.00;;;;;;4957684;29;20231;-77
2022/08/08 12:50:48;;;;;;;2.08;1.48;;;32.60;1.00;;;;;;4957170;29;20903;-74
2022/08/08 12:53:23;;;;;;;2.78;1.40;;;32.90;1.00;;;;;;4957015;29;20325;-74
2022/08/08 12:55:58;;;;;;;2.92;1.40;;;32.00;1.00;;;;;;4957359;29;20306;-74
2022/08/08 12:58:29;;;;;;;3.20;1.60;;;32.00;1.00;;;;;;4956580;29;20229;-74
2022/08/08 13:01:08;;;;;;;4.32;1.33;;;32.20;1.00;;;;;;4967438;28;20238;-74
2022/08/08 13:03:35;;;;;;;1.77;1.40;;;32.90;1.00;;;;;;4960956;28;20198;-74
2022/08/08 13:06:08;;;;;;;1.60;1.40;;;33.60;1.00;;;;;;4976304;28;20203;-74
2022/08/08 13:08:44;;;;;;;3.60;1.60;;;33.60;1.00;;;;;;4976023;28;20237;-74
2022/08/08 13:11:20;;;;;;;2.45;1.42;;;32.40;1.00;;;;;;4975554;28;20975;-74
2022/08/08 13:14:00;;;;;;;1.75;1.40;;;32.30;1.00;;;;;;4975969;28;20244;-74
2022/08/08 13:16:28;;;;;;;2.40;1.55;;;32.80;1.00;;;;;;4975865;28;20294;-74
2022/08/08 13:18:57;;;;;;;1.52;1.33;;;32.50;1.00;;;;;;4975797;28;20202;-74
2022/08/08 13:21:24;;;;;;;2.95;1.20;;;31.80;1.00;;;;;;4974828;28;20209;-74
2022/08/08 13:23:51;;;;;;;4.03;1.52;;;32.10;1.00;;;;;;4975896;28;20202;-77
2022/08/08 13:26:18;;;;;;;3.70;1.48;;;32.40;1.00;;;;;;4975660;28;20229;-76
2022/08/08 13:28:45;;;;;;;1.55;1.30;;;32.40;1.00;;;;;;4975725;28;20286;-77
2022/08/08 13:31:14;;;;;;;2.08;1.50;;;32.20;1.00;;;;;;4975794;28;20289;-74
2022/08/08 13:33:41;;;;;;;2.85;1.40;;;32.80;1.00;;;;;;4975655;28;20266;-74
2022/08/08 13:36:09;;;;;;;2.28;1.40;;;33.00;1.00;;;;;;4975907;28;20229;-76
2022/08/08 13:38:37;;;;;;;1.63;1.40;;;32.90;1.00;;;;;;4975534;28;20915;-74
2022/08/08 13:41:04;;;;;;;2.28;1.65;;;32.70;1.00;;;;;;4975166;28;20709;-74
2022/08/08 13:43:31;;;;;;;2.65;1.70;;;32.10;1.00;;;;;;4975354;28;20238;-74